Time;durP1;ratioP1;P1;durP2;ratioP2;P2;SDS_P1;SDS_P2;PMS_P1;PMS_P2;Temp;Humidity;BMP_temperature;BMP_pressure;BME280_temperature;BME280_humidity;BME280_pressure;Samples;Min_cycle;Max_cycle;Signal;HPM_P1;HPM_P2
2022/11/06 00:00:36;;;;;;;18.60;13.40;;;1.20;92.60;;;;;;4997253;28;20023;-87
2022/11/06 00:03:03;;;;;;;19.67;14.68;;;1.20;92.70;;;;;;4998520;28;20030;-90
2022/11/06 00:08:31;;;;;;;19.58;14.68;;;1.20;92.90;;;;;;4963259;28;20038;-87
2022/11/06 00:10:57;;;;;;;19.73;14.00;;;1.20;92.90;;;;;;5002517;28;20026;-90
2022/11/06 00:13:23;;;;;;;19.70;14.88;;;1.20;93.00;;;;;;4999810;28;20071;-90
2022/11/06 00:15:49;;;;;;;20.67;14.10;;;1.20;92.90;;;;;;5007868;28;20115;-88
2022/11/06 00:18:15;;;;;;;20.77;14.80;;;1.30;93.00;;;;;;5021366;28;20043;-88
2022/11/06 00:20:41;;;;;;;21.77;14.95;;;1.30;93.00;;;;;;5020414;28;20034;-90
2022/11/06 00:23:07;;;;;;;18.63;14.85;;;1.30;92.90;;;;;;5019324;28;20098;-89
2022/11/06 00:25:32;;;;;;;20.42;14.40;;;1.30;92.90;;;;;;5005544;28;20022;-89
2022/11/06 00:28:01;;;;;;;20.63;14.80;;;1.30;92.90;;;;;;5010816;28;20042;-92
2022/11/06 00:30:27;;;;;;;19.45;14.45;;;1.30;93.00;;;;;;4998584;28;20109;-89
2022/11/06 00:32:58;;;;;;;20.30;14.40;;;1.30;92.90;;;;;;4997400;28;20057;-92
2022/11/06 00:35:24;;;;;;;21.98;15.38;;;1.30;93.00;;;;;;5004323;28;20025;-88
2022/11/06 00:37:50;;;;;;;21.13;15.45;;;1.40;93.00;;;;;;5010416;28;20084;-90
2022/11/06 00:40:16;;;;;;;24.63;14.48;;;1.40;93.00;;;;;;4994642;28;20129;-90
2022/11/06 00:42:42;;;;;;;19.23;14.20;;;1.40;93.00;;;;;;5021784;28;20037;-92
2022/11/06 00:45:08;;;;;;;20.13;15.63;;;1.40;93.00;;;;;;5028679;28;20034;-91
2022/11/06 00:47:34;;;;;;;21.98;16.45;;;1.30;92.90;;;;;;5020436;28;20029;-91
2022/11/06 00:50:03;;;;;;;21.52;14.88;;;1.30;93.00;;;;;;5049990;28;20021;-86
2022/11/06 00:52:29;;;;;;;21.17;15.10;;;1.30;93.10;;;;;;5057255;28;20052;-92
2022/11/06 00:54:55;;;;;;;23.10;16.65;;;1.30;93.10;;;;;;5041929;28;20014;-87
2022/11/06 00:57:22;;;;;;;18.90;14.43;;;1.30;93.10;;;;;;5031096;28;20068;-84
2022/11/06 00:59:48;;;;;;;20.63;14.82;;;1.30;93.10;;;;;;5042569;28;20041;-85
2022/11/06 01:02:18;;;;;;;19.42;15.45;;;1.30;93.10;;;;;;4999096;28;20038;-90
2022/11/06 01:04:43;;;;;;;22.05;15.77;;;1.40;93.00;;;;;;5019517;28;20033;-91
2022/11/06 01:07:09;;;;;;;21.33;16.20;;;1.40;93.10;;;;;;5016852;28;20022;-86
2022/11/06 01:09:35;;;;;;;19.75;14.75;;;1.40;93.10;;;;;;5017508;28;20068;-84
2022/11/06 01:12:01;;;;;;;18.10;14.20;;;1.40;92.90;;;;;;5014714;28;20092;-85
2022/11/06 01:14:27;;;;;;;18.30;14.13;;;1.40;92.80;;;;;;5015388;28;20101;-88
2022/11/06 01:16:53;;;;;;;19.23;14.95;;;1.40;92.70;;;;;;5016047;28;20080;-88
2022/11/06 01:19:20;;;;;;;24.05;14.70;;;1.40;92.60;;;;;;5015135;28;20108;-86
2022/11/06 01:21:48;;;;;;;17.63;13.45;;;1.40;92.60;;;;;;5015750;28;20029;-88
2022/11/06 01:24:26;;;;;;;21.38;14.50;;;1.40;92.60;;;;;;5015622;28;20030;-88
2022/11/06 01:26:52;;;;;;;18.02;13.27;;;1.40;92.50;;;;;;4996528;28;20034;-88
2022/11/06 01:29:19;;;;;;;17.33;12.77;;;1.30;92.70;;;;;;5014025;28;20695;-86
2022/11/06 01:31:48;;;;;;;20.25;12.75;;;1.30;92.40;;;;;;5013682;28;20021;-87
2022/11/06 01:34:15;;;;;;;17.98;13.00;;;1.20;92.50;;;;;;5013387;28;20034;-84
2022/11/06 01:36:40;;;;;;;20.67;14.13;;;1.30;92.60;;;;;;5016599;28;20026;-87
2022/11/06 01:39:10;;;;;;;19.40;13.65;;;1.20;92.50;;;;;;5015537;28;20048;-87
2022/11/06 01:41:39;;;;;;;18.20;12.93;;;1.20;92.70;;;;;;5015676;28;20037;-86
2022/11/06 01:44:32;;;;;;;15.70;11.65;;;1.10;92.60;;;;;;5032490;28;20080;-89
2022/11/06 01:46:59;;;;;;;16.42;12.68;;;1.10;92.70;;;;;;4999869;28;20529;-89
2022/11/06 01:49:26;;;;;;;17.90;12.98;;;1.10;92.70;;;;;;5021425;28;20025;-88
2022/11/06 01:51:57;;;;;;;17.38;12.65;;;1.10;92.80;;;;;;5016745;28;20092;-90
2022/11/06 01:54:26;;;;;;;17.05;12.43;;;1.00;92.90;;;;;;5014768;28;20037;-87
2022/11/06 01:56:54;;;;;;;19.10;13.18;;;1.00;92.80;;;;;;5009364;28;20030;-86
2022/11/06 01:59:25;;;;;;;16.02;10.82;;;1.00;93.00;;;;;;5030966;28;20109;-88
2022/11/06 02:01:51;;;;;;;13.82;11.13;;;1.10;93.00;;;;;;5034567;28;20037;-88
2022/11/06 02:04:31;;;;;;;14.88;10.60;;;1.00;92.80;;;;;;5007118;28;20050;-87
2022/11/06 02:06:58;;;;;;;15.57;11.52;;;1.00;92.80;;;;;;5005553;28;20422;-88
2022/11/06 02:09:25;;;;;;;14.63;11.25;;;1.00;92.80;;;;;;5018674;28;20368;-88
2022/11/06 02:11:56;;;;;;;14.23;10.65;;;1.00;92.80;;;;;;5025782;28;20048;-81
2022/11/06 02:14:38;;;;;;;17.50;11.05;;;1.00;92.90;;;;;;5037537;28;20030;-86
2022/11/06 02:17:17;;;;;;;17.35;12.32;;;0.90;92.80;;;;;;5018361;28;20018;-87
2022/11/06 02:20:08;;;;;;;18.55;11.60;;;1.00;92.80;;;;;;5017382;28;20029;-89
2022/11/06 02:22:59;;;;;;;19.13;12.98;;;1.00;92.70;;;;;;5015400;28;20034;-88
2022/11/06 02:25:32;;;;;;;17.77;13.02;;;1.00;92.70;;;;;;5011461;28;20068;-87
2022/11/06 02:28:27;;;;;;;17.48;12.20;;;0.90;92.60;;;;;;5015618;28;20025;-88
2022/11/06 02:30:57;;;;;;;15.63;12.30;;;0.90;92.60;;;;;;4994161;28;20073;-89
2022/11/06 02:33:35;;;;;;;14.30;10.73;;;0.80;92.70;;;;;;5013621;28;20849;-89
2022/11/06 02:36:06;;;;;;;19.33;13.65;;;0.80;92.70;;;;;;4998568;28;20025;-90
2022/11/06 02:38:42;;;;;;;17.70;12.45;;;0.70;92.70;;;;;;5020260;28;20030;-87
2022/11/06 02:41:17;;;;;;;17.25;12.05;;;0.80;92.90;;;;;;5012917;28;20022;-87
2022/11/06 02:43:47;;;;;;;21.38;12.63;;;0.80;92.70;;;;;;5030059;28;20438;-85
2022/11/06 02:46:38;;;;;;;18.33;12.75;;;0.80;92.70;;;;;;5042807;28;20037;-87
2022/11/06 02:49:06;;;;;;;13.95;10.55;;;0.80;92.70;;;;;;5008451;28;20030;-87
2022/11/06 02:51:38;;;;;;;16.98;13.20;;;0.90;92.60;;;;;;5026421;28;20030;-87
2022/11/06 02:54:05;;;;;;;17.85;13.77;;;0.80;92.50;;;;;;5005963;28;20113;-87
2022/11/06 02:56:40;;;;;;;19.73;13.57;;;0.70;92.90;;;;;;5001000;28;20018;-87
2022/11/06 02:59:17;;;;;;;18.85;13.38;;;0.80;92.70;;;;;;5021342;28;20034;-85
2022/11/06 03:01:57;;;;;;;18.48;14.48;;;0.90;92.60;;;;;;5031065;28;20029;-87
2022/11/06 03:04:41;;;;;;;20.42;13.68;;;0.80;92.50;;;;;;5013951;28;20040;-88
2022/11/06 03:07:18;;;;;;;19.95;12.20;;;0.80;92.50;;;;;;5020404;28;20014;-87
2022/11/06 03:09:44;;;;;;;20.98;14.07;;;0.70;92.30;;;;;;5019451;28;20033;-87
2022/11/06 03:12:25;;;;;;;21.67;15.32;;;0.60;92.30;;;;;;5018442;28;20010;-86
2022/11/06 03:15:13;;;;;;;23.27;15.20;;;0.50;92.50;;;;;;5021442;28;20046;-85
2022/11/06 03:17:51;;;;;;;23.92;15.60;;;0.60;92.60;;;;;;5043035;28;20010;-86
2022/11/06 03:20:49;;;;;;;23.67;15.55;;;0.60;92.60;;;;;;5025230;28;20053;-87
2022/11/06 03:23:19;;;;;;;20.38;14.38;;;0.70;92.40;;;;;;5022463;28;20037;-86
2022/11/06 03:26:15;;;;;;;20.08;14.38;;;0.70;92.40;;;;;;5023222;28;20025;-88
2022/11/06 03:29:10;;;;;;;24.20;14.60;;;0.70;92.30;;;;;;5017508;28;20219;-89
2022/11/06 03:31:44;;;;;;;18.52;14.48;;;0.60;92.00;;;;;;4998015;28;20056;-87
2022/11/06 03:34:16;;;;;;;20.27;15.23;;;0.50;92.00;;;;;;5016211;28;20124;-86
2022/11/06 03:36:46;;;;;;;17.10;13.18;;;0.50;91.90;;;;;;5018291;28;20022;-86
2022/11/06 03:39:19;;;;;;;22.42;13.77;;;0.50;91.90;;;;;;4999345;28;20483;-85
2022/11/06 03:41:51;;;;;;;19.08;14.30;;;0.50;92.00;;;;;;5019152;28;20044;-84
2022/11/06 03:44:22;;;;;;;19.92;15.30;;;0.50;91.70;;;;;;5016004;28;20114;-87
2022/11/06 03:46:56;;;;;;;18.77;14.93;;;0.40;91.80;;;;;;5017850;28;20018;-87
2022/11/06 03:49:30;;;;;;;20.08;13.68;;;0.50;91.90;;;;;;5007105;28;20022;-87
2022/11/06 03:52:06;;;;;;;22.48;15.82;;;0.40;91.80;;;;;;5017435;28;20041;-86
2022/11/06 03:54:38;;;;;;;19.90;14.27;;;0.40;91.90;;;;;;5012921;28;20029;-88
2022/11/06 03:57:10;;;;;;;21.63;15.20;;;0.40;91.90;;;;;;5005588;28;20018;-86
2022/11/06 03:59:45;;;;;;;18.08;13.43;;;0.30;91.90;;;;;;5038759;28;20030;-86
2022/11/06 04:02:14;;;;;;;20.55;14.48;;;0.30;92.00;;;;;;5016449;28;20037;-88
2022/11/06 04:04:49;;;;;;;19.08;14.35;;;0.30;92.00;;;;;;5014791;28;20025;-86
2022/11/06 04:07:22;;;;;;;24.33;14.85;;;0.40;92.20;;;;;;5023564;28;20006;-86
2022/11/06 04:15:13;;;;;;;19.17;14.50;;;0.40;92.10;;;;;;5026825;28;20022;-87
2022/11/06 04:17:40;;;;;;;17.85;12.18;;;0.40;92.20;;;;;;5020501;28;20080;-86
2022/11/06 04:21:20;;;;;;;21.38;15.07;;;0.40;92.20;;;;;;5023206;28;20026;-88
2022/11/06 04:23:17;;;;;;;19.55;14.02;;;0.40;92.20;;;;;;5025070;28;20122;-88
2022/11/06 04:26:50;;;;;;;18.23;13.32;;;0.30;92.00;;;;;;5018512;28;20089;-87
2022/11/06 04:29:33;;;;;;;20.95;14.80;;;0.20;92.20;;;;;;5020062;28;20033;-87
2022/11/06 04:32:21;;;;;;;18.95;14.30;;;0.20;92.20;;;;;;5015832;28;20029;-90
2022/11/06 04:35:11;;;;;;;20.80;14.60;;;0.30;92.50;;;;;;5013788;28;20141;-87
2022/11/06 04:37:52;;;;;;;17.98;12.90;;;0.30;92.40;;;;;;5031653;28;20022;-87
2022/11/06 04:40:26;;;;;;;23.38;15.25;;;0.30;92.40;;;;;;5030425;28;20042;-84
2022/11/06 04:43:00;;;;;;;19.20;12.75;;;0.30;92.50;;;;;;5037700;28;20045;-88
2022/11/06 04:45:29;;;;;;;19.83;13.27;;;0.40;92.50;;;;;;5018711;28;20048;-88
2022/11/06 04:47:56;;;;;;;20.83;15.32;;;0.40;92.40;;;;;;5023355;28;20041;-88
2022/11/06 04:50:24;;;;;;;18.52;14.10;;;0.40;92.30;;;;;;5003762;28;20053;-87
2022/11/06 04:52:51;;;;;;;18.35;14.80;;;0.40;92.40;;;;;;5016466;28;20042;-88
2022/11/06 04:55:19;;;;;;;25.25;15.13;;;0.40;92.30;;;;;;5016035;28;20068;-88
2022/11/06 04:57:44;;;;;;;21.10;14.32;;;0.40;92.30;;;;;;5015204;28;20022;-87
2022/11/06 05:00:13;;;;;;;20.63;15.25;;;0.40;92.40;;;;;;5017382;28;20033;-87
2022/11/06 05:02:41;;;;;;;19.40;12.70;;;0.40;92.40;;;;;;5001440;28;20061;-89
2022/11/06 05:05:08;;;;;;;19.88;13.50;;;0.20;92.40;;;;;;5035424;28;20006;-87
2022/11/06 05:07:33;;;;;;;23.55;15.82;;;0.10;92.70;;;;;;5007134;28;20037;-88
2022/11/06 05:10:00;;;;;;;21.52;14.15;;;0.20;92.90;;;;;;5015275;28;20025;-90
2022/11/06 05:12:26;;;;;;;19.92;14.50;;;0.30;92.90;;;;;;5014532;28;20062;-90
2022/11/06 05:14:52;;;;;;;20.67;13.05;;;0.30;92.80;;;;;;5020023;28;20036;-88
2022/11/06 05:17:18;;;;;;;21.25;15.00;;;0.30;92.60;;;;;;4998468;28;20026;-90
2022/11/06 05:19:44;;;;;;;22.52;14.82;;;0.20;92.70;;;;;;4998790;28;20032;-89
2022/11/06 05:24:59;;;;;;;20.45;14.55;;;0.20;92.90;;;;;;4991461;28;20037;-91
2022/11/06 05:27:25;;;;;;;24.95;15.90;;;0.20;93.00;;;;;;5027475;28;20022;-91
2022/11/06 05:29:51;;;;;;;22.58;15.80;;;0.30;92.90;;;;;;5034515;28;20057;-88
2022/11/06 05:32:17;;;;;;;23.80;19.05;;;0.30;92.80;;;;;;5022418;28;20034;-88
2022/11/06 05:34:44;;;;;;;21.80;13.95;;;0.40;92.80;;;;;;5038949;28;20057;-87
2022/11/06 05:37:10;;;;;;;21.13;16.90;;;0.50;92.70;;;;;;5028820;28;20430;-87
2022/11/06 05:39:36;;;;;;;21.02;14.63;;;0.40;92.50;;;;;;5030533;28;20059;-87
2022/11/06 05:42:02;;;;;;;24.05;14.75;;;0.30;92.50;;;;;;5033608;28;20010;-88
2022/11/06 05:44:28;;;;;;;23.15;16.25;;;0.20;92.50;;;;;;5035946;28;20034;-87
2022/11/06 05:46:54;;;;;;;23.38;16.52;;;0.10;92.90;;;;;;5015090;28;20026;-88
2022/11/06 05:49:19;;;;;;;28.35;16.60;;;0.10;93.10;;;;;;5017754;28;20069;-86
2022/11/06 05:51:46;;;;;;;21.67;15.70;;;0.20;93.20;;;;;;5013996;28;20026;-85
2022/11/06 05:54:12;;;;;;;28.35;18.52;;;0.20;93.10;;;;;;5016543;28;20483;-88
2022/11/06 05:56:40;;;;;;;24.45;16.58;;;0.20;93.20;;;;;;4996934;28;20034;-88
2022/11/06 05:59:06;;;;;;;26.35;16.63;;;0.30;93.20;;;;;;5017920;28;20116;-89
2022/11/06 06:01:32;;;;;;;24.00;16.98;;;0.40;93.20;;;;;;5013876;28;20511;-88
2022/11/06 06:03:58;;;;;;;23.75;16.95;;;0.50;93.20;;;;;;5014727;28;20045;-86
2022/11/06 06:06:25;;;;;;;25.23;17.23;;;0.50;93.10;;;;;;5016178;28;20018;-89
2022/11/06 06:08:50;;;;;;;28.00;17.92;;;0.50;93.10;;;;;;4957868;28;20507;-86
2022/11/06 06:11:16;;;;;;;21.15;16.45;;;0.60;93.20;;;;;;4971969;28;20042;-87
2022/11/06 06:13:43;;;;;;;25.55;18.75;;;0.60;93.10;;;;;;4973711;28;20058;-85
2022/11/06 06:16:09;;;;;;;28.50;16.83;;;0.70;93.10;;;;;;4973226;28;20029;-86
2022/11/06 06:18:34;;;;;;;25.55;17.38;;;0.80;92.90;;;;;;4972727;28;20027;-87
2022/11/06 06:21:21;;;;;;;23.60;14.82;;;0.80;92.90;;;;;;4976088;28;20031;-86
2022/11/06 06:23:46;;;;;;;28.20;16.77;;;0.80;92.80;;;;;;4973946;28;20034;-87
2022/11/06 06:26:15;;;;;;;35.28;18.05;;;0.70;92.70;;;;;;5007420;28;20640;-86
2022/11/06 06:28:41;;;;;;;31.92;17.25;;;0.70;92.90;;;;;;4968855;28;20484;-88
2022/11/06 06:31:08;;;;;;;36.00;19.17;;;0.60;92.80;;;;;;4997254;28;20115;-90
2022/11/06 06:33:34;;;;;;;25.80;16.70;;;0.70;93.00;;;;;;5004564;28;20078;-85
2022/11/06 06:36:16;;;;;;;29.23;17.33;;;0.80;92.90;;;;;;5009684;28;20309;-85
2022/11/06 06:38:45;;;;;;;24.00;15.70;;;0.90;92.80;;;;;;4986080;28;20037;-87
2022/11/06 06:41:12;;;;;;;23.42;13.43;;;0.90;92.70;;;;;;4984414;28;20078;-87
2022/11/06 06:43:38;;;;;;;21.17;14.48;;;1.00;92.50;;;;;;4976532;28;20030;-90
2022/11/06 06:46:06;;;;;;;25.63;16.90;;;0.90;92.40;;;;;;4992821;28;20368;-90
2022/11/06 06:48:32;;;;;;;19.23;16.38;;;0.90;92.50;;;;;;5015993;28;20036;-89
2022/11/06 06:51:00;;;;;;;28.92;17.67;;;1.00;92.60;;;;;;5015938;28;20026;-89
2022/11/06 06:53:26;;;;;;;;;;;1.00;92.50;;;;;;4993989;28;20114;-87
2022/11/06 06:55:52;;;;;;;20.75;14.27;;;1.10;92.60;;;;;;4996889;28;19959;-89
2022/11/06 06:58:19;;;;;;;21.38;15.10;;;1.20;92.50;;;;;;4996301;28;20080;-86
2022/11/06 07:00:45;;;;;;;21.75;15.30;;;1.20;92.40;;;;;;5009523;28;20033;-86
2022/11/06 07:03:12;;;;;;;26.27;16.90;;;1.20;92.30;;;;;;5018529;28;20130;-85
2022/11/06 07:05:38;;;;;;;15.82;11.90;;;1.20;92.30;;;;;;4990426;28;20019;-86
2022/11/06 07:08:04;;;;;;;17.77;11.50;;;1.10;92.20;;;;;;4994957;28;20018;-86
2022/11/06 07:10:31;;;;;;;20.60;13.18;;;1.00;92.10;;;;;;5001372;28;20022;-84
2022/11/06 07:13:06;;;;;;;17.80;12.53;;;0.80;92.30;;;;;;5009740;28;20034;-90
2022/11/06 07:15:32;;;;;;;14.98;12.25;;;0.70;92.40;;;;;;5005410;28;20045;-88
2022/11/06 07:18:03;;;;;;;16.55;12.20;;;0.70;92.50;;;;;;4994409;28;20027;-88
2022/11/06 07:20:29;;;;;;;18.10;12.63;;;0.80;92.50;;;;;;4997127;28;20033;-89
2022/11/06 07:22:55;;;;;;;17.05;11.38;;;0.80;92.80;;;;;;5002675;28;20022;-91
2022/11/06 07:25:21;;;;;;;16.42;11.88;;;0.90;92.50;;;;;;5019122;28;20031;-92
2022/11/06 07:27:52;;;;;;;15.82;11.75;;;0.90;92.40;;;;;;5016623;28;20029;-90
2022/11/06 07:30:18;;;;;;;17.65;11.02;;;0.90;92.30;;;;;;5022780;28;20038;-91
2022/11/06 07:32:47;;;;;;;16.38;10.85;;;1.00;92.40;;;;;;5012937;28;20042;-91
2022/11/06 07:35:13;;;;;;;15.27;11.63;;;1.00;92.30;;;;;;5009532;28;20046;-91
2022/11/06 07:37:40;;;;;;;14.57;11.43;;;0.80;92.20;;;;;;5008664;28;20026;-89
2022/11/06 07:40:10;;;;;;;13.30;11.77;;;0.80;92.50;;;;;;5021007;28;20022;-92
2022/11/06 07:42:37;;;;;;;14.70;11.70;;;0.90;92.50;;;;;;5003264;28;20031;-93
2022/11/06 07:45:03;;;;;;;16.85;12.20;;;0.90;92.40;;;;;;5031489;28;20038;-91
2022/11/06 07:47:29;;;;;;;13.25;10.55;;;1.00;92.50;;;;;;5014285;28;20066;-83
2022/11/06 07:49:55;;;;;;;16.13;11.90;;;1.10;92.40;;;;;;5016856;28;20021;-85
2022/11/06 07:52:22;;;;;;;17.10;11.18;;;1.10;92.40;;;;;;5019555;28;20047;-91
2022/11/06 07:54:48;;;;;;;13.23;10.77;;;1.20;92.30;;;;;;5014665;28;20049;-89
2022/11/06 07:57:14;;;;;;;13.50;10.38;;;1.20;92.30;;;;;;5028219;28;20022;-87
2022/11/06 07:59:41;;;;;;;14.52;10.75;;;1.20;92.20;;;;;;5002732;28;20071;-87
2022/11/06 08:02:13;;;;;;;14.85;10.63;;;1.20;92.20;;;;;;5010089;28;20037;-90
2022/11/06 08:04:39;;;;;;;14.20;10.10;;;1.20;92.10;;;;;;5002417;28;20041;-88
2022/11/06 08:07:05;;;;;;;16.67;11.50;;;1.30;92.00;;;;;;5009938;28;20018;-89
2022/11/06 08:09:31;;;;;;;11.98;9.80;;;1.20;92.00;;;;;;5017791;28;20106;-88
2022/11/06 08:11:58;;;;;;;17.75;10.93;;;1.20;91.80;;;;;;5021595;28;20057;-90
2022/11/06 08:14:24;;;;;;;14.15;10.02;;;1.10;92.10;;;;;;5015408;28;20069;-90
2022/11/06 08:16:50;;;;;;;14.05;10.55;;;1.00;92.00;;;;;;5020022;28;20471;-91
2022/11/06 08:19:25;;;;;;;13.15;10.25;;;1.00;92.10;;;;;;5020443;28;20395;-90
2022/11/06 08:21:51;;;;;;;17.17;11.57;;;1.10;92.20;;;;;;5017939;28;20029;-90
2022/11/06 08:24:19;;;;;;;14.88;11.88;;;1.10;92.10;;;;;;5028535;28;20097;-89
2022/11/06 08:26:44;;;;;;;15.90;10.82;;;1.10;92.10;;;;;;4989020;28;20031;-91
2022/11/06 08:29:10;;;;;;;19.45;11.90;;;1.20;92.10;;;;;;5023006;28;20014;-91
2022/11/06 08:31:36;;;;;;;18.70;12.73;;;1.20;92.10;;;;;;5022974;28;20017;-89
2022/11/06 08:34:02;;;;;;;21.10;11.13;;;1.20;92.10;;;;;;5030408;28;20045;-94
2022/11/06 08:36:28;;;;;;;16.08;11.13;;;1.20;92.10;;;;;;5006650;28;20057;-92
2022/11/06 08:38:54;;;;;;;14.75;11.00;;;1.30;92.10;;;;;;4997215;28;20042;-92
2022/11/06 08:41:20;;;;;;;17.35;12.30;;;1.30;92.10;;;;;;4998663;28;20041;-93
2022/11/06 08:43:50;;;;;;;17.50;11.45;;;1.40;92.00;;;;;;4981665;28;20027;-90
2022/11/06 08:46:17;;;;;;;16.13;11.05;;;1.30;91.80;;;;;;4978292;28;20039;-95
2022/11/06 08:48:46;;;;;;;14.80;11.38;;;1.30;91.90;;;;;;4999908;28;20511;-90
2022/11/06 08:51:13;;;;;;;21.42;13.25;;;1.30;91.80;;;;;;4954710;28;20018;-91
2022/11/06 08:53:49;;;;;;;18.88;12.93;;;1.30;91.80;;;;;;4955104;28;20113;-90
2022/11/06 08:56:20;;;;;;;15.80;12.27;;;1.30;91.90;;;;;;5012211;28;20474;-91
2022/11/06 08:58:48;;;;;;;17.17;11.85;;;1.40;91.90;;;;;;4968095;29;20031;-92
2022/11/06 09:01:16;;;;;;;15.13;11.27;;;1.40;91.80;;;;;;4984296;28;20023;-91
2022/11/06 09:03:44;;;;;;;14.50;11.75;;;1.40;91.80;;;;;;5004364;28;20035;-88
2022/11/06 09:06:10;;;;;;;16.90;11.43;;;1.40;91.90;;;;;;5011267;28;20053;-89
2022/11/06 09:08:40;;;;;;;16.98;12.23;;;1.40;92.10;;;;;;5008520;28;20050;-89
2022/11/06 09:11:06;;;;;;;23.60;12.40;;;1.30;92.00;;;;;;4979449;28;20030;-88
2022/11/06 09:13:33;;;;;;;29.52;16.48;;;1.30;92.00;;;;;;5005685;28;20058;-82
2022/11/06 09:15:59;;;;;;;19.45;14.35;;;1.30;92.10;;;;;;5015281;28;20053;-89
2022/11/06 09:18:25;;;;;;;30.35;13.25;;;1.40;92.10;;;;;;5000517;28;20029;-84
2022/11/06 09:20:55;;;;;;;19.90;14.63;;;1.40;91.90;;;;;;5005854;28;20046;-90
2022/11/06 09:23:24;;;;;;;19.20;13.20;;;1.30;91.70;;;;;;5001909;28;20454;-90
2022/11/06 09:25:50;;;;;;;17.15;12.35;;;1.10;91.60;;;;;;5002373;28;20022;-89
2022/11/06 09:28:16;;;;;;;22.65;15.93;;;0.90;92.10;;;;;;5014143;28;20029;-91
2022/11/06 09:30:43;;;;;;;23.73;15.18;;;0.90;92.50;;;;;;4997800;28;20029;-89
2022/11/06 09:33:09;;;;;;;23.08;15.82;;;1.00;92.40;;;;;;5001394;28;20026;-90
2022/11/06 09:35:35;;;;;;;24.45;16.40;;;1.10;92.30;;;;;;5001329;28;20022;-92
2022/11/06 09:38:09;;;;;;;28.02;16.60;;;1.10;92.30;;;;;;5000176;28;20110;-89
2022/11/06 09:40:36;;;;;;;19.33;12.57;;;1.20;92.30;;;;;;5010904;28;20014;-88
2022/11/06 09:43:39;;;;;;;22.00;13.25;;;1.30;92.00;;;;;;5008595;28;20045;-90
2022/11/06 09:46:19;;;;;;;18.15;11.60;;;1.10;91.90;;;;;;5001352;28;20027;-89
2022/11/06 09:48:53;;;;;;;21.02;12.35;;;0.80;92.20;;;;;;4987650;28;20027;-89
2022/11/06 09:51:49;;;;;;;25.73;14.30;;;0.80;92.50;;;;;;4995973;28;20026;-88
2022/11/06 09:54:29;;;;;;;21.05;16.13;;;0.80;92.50;;;;;;5010686;28;20038;-87
2022/11/06 09:57:04;;;;;;;21.17;15.50;;;0.90;92.70;;;;;;5009486;28;20559;-89
2022/11/06 09:59:35;;;;;;;13.77;10.38;;;1.10;92.40;;;;;;5010271;28;20022;-87
2022/11/06 10:02:01;;;;;;;17.75;11.50;;;1.20;92.20;;;;;;5003181;28;20033;-88
2022/11/06 10:04:37;;;;;;;17.80;11.10;;;1.10;92.10;;;;;;5008043;28;20065;-82
2022/11/06 10:07:03;;;;;;;20.55;13.40;;;1.00;92.20;;;;;;5000806;28;20046;-83
2022/11/06 10:09:30;;;;;;;17.98;13.60;;;0.70;92.50;;;;;;4996350;28;20026;-84
2022/11/06 10:12:09;;;;;;;15.57;9.70;;;0.70;92.80;;;;;;4989351;28;20113;-83
2022/11/06 10:15:15;;;;;;;15.32;10.60;;;0.80;92.70;;;;;;5004402;28;20035;-87
2022/11/06 10:17:56;;;;;;;17.30;10.68;;;0.70;93.00;;;;;;4997673;28;20041;-85
2022/11/06 10:20:33;;;;;;;14.93;9.48;;;0.60;92.90;;;;;;4985956;28;20022;-84
2022/11/06 10:23:04;;;;;;;19.67;10.60;;;0.50;93.00;;;;;;4993406;28;20022;-83
2022/11/06 10:25:44;;;;;;;16.42;11.07;;;0.40;93.00;;;;;;4991870;28;20027;-86
2022/11/06 10:28:33;;;;;;;17.73;12.18;;;0.30;93.20;;;;;;5001355;28;20035;-83
2022/11/06 10:31:10;;;;;;;20.10;14.00;;;0.40;93.50;;;;;;5010328;28;20033;-85
2022/11/06 10:33:53;;;;;;;20.40;13.68;;;0.40;93.40;;;;;;4996641;28;20037;-88
2022/11/06 10:36:25;;;;;;;26.20;13.23;;;0.60;93.40;;;;;;5008299;28;20578;-87
2022/11/06 10:38:52;;;;;;;18.60;12.25;;;0.70;93.40;;;;;;4995064;28;20468;-86
2022/11/06 10:41:35;;;;;;;17.25;11.13;;;0.90;93.30;;;;;;4989420;28;20027;-87
2022/11/06 10:44:13;;;;;;;13.35;7.95;;;0.90;92.90;;;;;;4995862;28;20106;-88
2022/11/06 10:46:45;;;;;;;18.08;12.57;;;0.80;92.80;;;;;;4992901;28;20105;-85
2022/11/06 10:49:21;;;;;;;19.27;11.00;;;0.70;93.10;;;;;;4993673;28;20022;-86
2022/11/06 10:51:58;;;;;;;13.48;8.77;;;0.80;93.10;;;;;;4995468;28;20039;-86
2022/11/06 10:54:46;;;;;;;15.15;9.77;;;1.00;93.00;;;;;;5012110;28;20529;-82
2022/11/06 10:57:31;;;;;;;10.52;6.50;;;1.00;92.70;;;;;;5011752;28;20029;-83
2022/11/06 10:59:56;;;;;;;13.45;8.27;;;1.00;92.10;;;;;;5003794;28;20017;-81
2022/11/06 11:02:34;;;;;;;11.43;8.10;;;0.80;92.20;;;;;;5017086;28;20435;-83
2022/11/06 11:05:00;;;;;;;8.55;7.03;;;0.80;92.60;;;;;;5021416;28;20451;-82
2022/11/06 11:07:33;;;;;;;13.50;8.82;;;0.70;92.20;;;;;;4989940;28;20065;-82
2022/11/06 11:10:19;;;;;;;12.73;9.32;;;0.60;92.50;;;;;;4996294;28;20434;-83
2022/11/06 11:12:45;;;;;;;18.20;10.18;;;0.60;92.60;;;;;;5013104;28;20014;-84
2022/11/06 11:15:13;;;;;;;14.98;8.70;;;0.60;92.60;;;;;;5022583;28;20053;-83
2022/11/06 11:17:41;;;;;;;14.40;8.80;;;0.80;92.70;;;;;;5013999;28;20022;-84
2022/11/06 11:20:30;;;;;;;15.00;8.43;;;0.80;92.60;;;;;;5014164;28;20050;-85
2022/11/06 11:23:14;;;;;;;13.02;7.43;;;0.80;92.60;;;;;;5013163;28;20471;-85
2022/11/06 11:25:43;;;;;;;18.58;11.93;;;0.90;92.60;;;;;;5016010;28;20116;-85
2022/11/06 11:28:25;;;;;;;10.75;7.20;;;0.90;92.70;;;;;;5013567;28;20408;-88
2022/11/06 11:31:13;;;;;;;12.45;8.32;;;1.00;92.60;;;;;;5001367;28;20021;-86
2022/11/06 11:33:41;;;;;;;11.23;7.85;;;0.80;92.30;;;;;;5006675;28;20038;-85
2022/11/06 11:36:08;;;;;;;12.15;8.43;;;0.60;92.50;;;;;;5017579;28;20148;-85
2022/11/06 11:38:39;;;;;;;12.63;9.75;;;0.50;92.60;;;;;;5016955;28;20029;-83
2022/11/06 11:41:21;;;;;;;15.85;10.35;;;0.40;92.90;;;;;;5005573;28;20022;-86
2022/11/06 11:44:10;;;;;;;15.63;11.25;;;0.50;93.10;;;;;;4999457;28;20045;-84
2022/11/06 11:46:45;;;;;;;15.80;11.07;;;0.60;93.00;;;;;;5006322;28;20037;-87
2022/11/06 11:49:27;;;;;;;14.88;10.30;;;0.70;93.00;;;;;;5001667;28;20060;-87
2022/11/06 11:51:55;;;;;;;14.68;9.77;;;0.80;92.90;;;;;;5017308;28;20876;-86
2022/11/06 11:54:27;;;;;;;14.65;9.57;;;0.90;92.80;;;;;;5019825;28;20041;-87
2022/11/06 11:57:03;;;;;;;18.80;12.75;;;1.00;92.70;;;;;;4999808;28;20030;-85
2022/11/06 11:59:49;;;;;;;16.73;10.63;;;1.10;92.60;;;;;;5026240;28;20364;-86
2022/11/06 12:02:21;;;;;;;20.42;12.27;;;1.10;92.40;;;;;;5016890;28;20030;-85
2022/11/06 12:05:10;;;;;;;16.35;8.43;;;1.10;92.40;;;;;;5015497;28;20029;-84
2022/11/06 12:07:39;;;;;;;18.65;12.18;;;1.10;92.30;;;;;;5014893;28;20018;-87
2022/11/06 12:10:35;;;;;;;17.52;11.48;;;0.90;92.50;;;;;;5014424;28;20025;-84
2022/11/06 12:13:13;;;;;;;17.83;9.68;;;1.00;92.60;;;;;;5015046;28;20034;-82
2022/11/06 12:16:03;;;;;;;15.85;9.98;;;1.00;92.60;;;;;;5006302;28;20033;-86
2022/11/06 12:18:31;;;;;;;11.77;8.27;;;0.90;92.50;;;;;;5015421;28;20026;-83
2022/11/06 12:21:16;;;;;;;15.18;9.63;;;0.90;92.50;;;;;;4993166;28;20029;-83
2022/11/06 12:23:47;;;;;;;16.55;11.90;;;0.70;92.50;;;;;;5020304;28;20014;-83
2022/11/06 12:26:57;;;;;;;17.13;10.85;;;0.70;92.70;;;;;;5026308;28;20571;-82
2022/11/06 12:29:40;;;;;;;20.35;12.20;;;0.60;92.80;;;;;;5012929;28;20438;-85
2022/11/06 12:32:48;;;;;;;19.08;13.88;;;0.60;93.00;;;;;;5011382;28;20206;-87
2022/11/06 12:35:24;;;;;;;24.15;13.63;;;0.70;93.10;;;;;;5012515;28;20507;-82
2022/11/06 12:37:55;;;;;;;25.77;15.95;;;0.90;93.10;;;;;;5014587;28;20033;-84
2022/11/06 12:40:36;;;;;;;21.40;13.18;;;1.00;92.80;;;;;;5016200;28;20491;-86
2022/11/06 12:43:14;;;;;;;17.88;10.65;;;1.00;92.70;;;;;;5017468;28;20040;-83
2022/11/06 12:45:49;;;;;;;14.23;11.02;;;0.90;92.30;;;;;;5007269;28;20022;-85
2022/11/06 12:48:43;;;;;;;22.52;15.25;;;0.70;92.40;;;;;;5028882;28;20105;-81
2022/11/06 12:51:40;;;;;;;19.38;9.55;;;0.70;92.80;;;;;;5014910;28;20395;-82
2022/11/06 12:54:20;;;;;;;18.52;12.88;;;0.70;92.60;;;;;;4989194;28;20034;-86
2022/11/06 12:57:37;;;;;;;16.33;10.80;;;0.60;92.70;;;;;;4998716;28;20446;-84
2022/11/06 13:00:08;;;;;;;17.45;12.15;;;0.60;92.70;;;;;;4962956;28;20034;-87
2022/11/06 13:02:59;;;;;;;22.38;12.88;;;0.50;92.90;;;;;;4995302;28;20033;-84
2022/11/06 13:05:55;;;;;;;21.58;13.55;;;0.50;93.00;;;;;;4989620;28;20475;-87
2022/11/06 13:08:27;;;;;;;15.02;8.73;;;0.60;93.10;;;;;;4991190;28;20065;-84
2022/11/06 13:11:30;;;;;;;18.70;11.88;;;0.70;92.90;;;;;;4995633;28;20037;-87
2022/11/06 13:14:15;;;;;;;15.77;11.32;;;0.60;93.30;;;;;;4988409;28;20554;-87
2022/11/06 13:17:00;;;;;;;15.27;11.38;;;0.60;93.10;;;;;;4995050;28;20050;-86